Time;durP1;ratioP1;P1;durP2;ratioP2;P2;SDS_P1;SDS_P2;PMS_P1;PMS_P2;Temp;Humidity;BMP_temperature;BMP_pressure;BME280_temperature;BME280_humidity;BME280_pressure;Samples;Min_cycle;Max_cycle;Signal;HPM_P1;HPM_P2
2022/08/02 00:01:45;;;;;;;7.97;1.52;;;;;;;9.26;53.37;101928.16;5014720;28;20163;-78
2022/08/02 00:04:11;;;;;;;4.47;0.73;;;;;;;9.27;53.23;101924.66;5014376;28;20041;-76
2022/08/02 00:06:37;;;;;;;1.92;0.77;;;;;;;9.38;53.33;101917.50;5002358;28;20058;-76
2022/08/02 00:09:04;;;;;;;4.88;1.83;;;;;;;9.28;53.09;101913.34;5013541;28;20049;-76
2022/08/02 00:11:29;;;;;;;5.00;1.75;;;;;;;9.18;53.08;101903.94;5012738;28;20404;-75
2022/08/02 00:13:55;;;;;;;6.22;1.65;;;;;;;9.14;53.66;101910.97;5014617;28;20041;-75
2022/08/02 00:16:21;;;;;;;3.22;1.48;;;;;;;9.23;53.36;101911.69;5020790;28;20037;-75
2022/08/02 00:18:46;;;;;;;2.47;0.90;;;;;;;9.30;53.39;101914.19;5019827;28;20069;-75
2022/08/02 00:21:12;;;;;;;6.07;0.93;;;;;;;9.34;53.24;101921.06;5013311;28;20030;-76
2022/08/02 00:23:37;;;;;;;6.75;1.10;;;;;;;9.39;53.13;101918.38;5013415;28;20099;-75
2022/08/02 00:26:03;;;;;;;4.20;1.35;;;;;;;9.46;53.12;101911.28;5013448;28;20033;-76
2022/08/02 00:28:28;;;;;;;5.65;1.38;;;;;;;9.50;53.18;101915.53;5018499;28;20053;-76
2022/08/02 00:30:58;;;;;;;3.45;1.15;;;;;;;9.50;53.06;101910.31;5015279;28;20037;-76
2022/08/02 00:33:24;;;;;;;7.45;1.80;;;;;;;9.39;52.83;101914.00;5020187;28;20049;-77
2022/08/02 00:35:50;;;;;;;4.85;1.95;;;;;;;9.19;53.10;101910.91;5003446;28;20029;-77
2022/08/02 00:38:15;;;;;;;7.80;1.75;;;;;;;9.14;53.29;101907.50;4996798;28;20045;-76
2022/08/02 00:40:47;;;;;;;4.10;1.33;;;;;;;9.04;53.50;101901.59;5017978;28;20038;-77
2022/08/02 00:43:12;;;;;;;2.95;0.82;;;;;;;8.93;53.64;101895.69;4997825;28;20081;-76
2022/08/02 00:45:39;;;;;;;1.30;0.93;;;;;;;8.96;53.91;101903.44;5016715;28;20105;-75
2022/08/02 00:48:07;;;;;;;3.03;1.48;;;;;;;8.95;53.83;101897.38;4999967;28;20038;-77
2022/08/02 00:50:33;;;;;;;6.35;1.35;;;;;;;8.91;53.96;101905.28;5002814;28;20079;-76
2022/08/02 00:52:59;;;;;;;4.93;1.33;;;;;;;8.93;53.97;101904.38;4997728;28;20057;-76
2022/08/02 00:55:25;;;;;;;3.97;1.35;;;;;;;9.08;53.85;101897.19;5016653;28;20045;-76
2022/08/02 00:57:51;;;;;;;4.35;1.48;;;;;;;9.03;53.76;101904.22;5017211;28;20107;-77
2022/08/02 01:00:17;;;;;;;4.95;1.90;;;;;;;9.04;53.87;101912.03;5018208;28;20049;-76
2022/08/02 01:02:43;;;;;;;4.05;1.20;;;;;;;9.18;53.78;101903.94;5012446;28;20041;-76
2022/08/02 01:05:09;;;;;;;4.90;1.60;;;;;;;9.18;53.53;101901.34;5026849;28;20029;-77
2022/08/02 01:07:35;;;;;;;3.92;1.55;;;;;;;9.15;53.85;101901.41;5018426;28;20034;-77
2022/08/02 01:10:01;;;;;;;4.47;1.60;;;;;;;9.15;53.88;101898.78;5013921;28;20412;-75
2022/08/02 01:12:27;;;;;;;2.85;1.52;;;;;;;9.13;53.81;101906.63;5002040;28;20140;-76
2022/08/02 01:14:57;;;;;;;3.38;1.90;;;;;;;9.15;53.85;101909.22;5017345;28;20407;-77
2022/08/02 01:17:44;;;;;;;5.72;2.13;;;;;;;9.28;53.81;101912.50;5020795;28;20052;-76
2022/08/02 01:20:47;;;;;;;7.18;1.10;;;;;;;9.53;53.29;101920.72;5012472;28;20041;-76
2022/08/02 01:23:24;;;;;;;5.43;1.45;;;;;;;9.64;52.67;101918.75;5013967;28;20621;-76
2022/08/02 01:26:05;;;;;;;2.95;1.48;;;;;;;9.67;52.65;101913.47;5018143;28;20025;-75
2022/08/02 01:28:37;;;;;;;4.43;1.05;;;;;;;9.70;52.67;101915.16;5000284;28;20038;-78
2022/08/02 01:31:12;;;;;;;6.38;1.55;;;;;;;9.70;52.52;101916.03;5016231;28;20033;-75
2022/08/02 01:33:50;;;;;;;6.22;1.15;;;;;;;9.72;51.99;101916.88;4995512;28;20041;-75
2022/08/02 01:36:19;;;;;;;4.53;1.27;;;;;;;9.74;52.07;101915.06;5018255;28;20037;-77
2022/08/02 01:38:51;;;;;;;3.78;1.60;;;;;;;9.76;51.95;101907.22;5012450;28;20048;-75
2022/08/02 01:41:24;;;;;;;4.82;1.33;;;;;;;9.74;52.16;101909.00;5013026;28;20455;-76
2022/08/02 01:43:53;;;;;;;7.20;2.05;;;;;;;9.72;51.51;101909.03;4996519;28;20496;-77
2022/08/02 01:46:19;;;;;;;4.30;1.40;;;;;;;9.56;51.67;101913.66;5003015;28;20029;-78
2022/08/02 01:48:46;;;;;;;4.13;1.40;;;;;;;9.44;52.01;101905.25;5019985;28;20057;-76
2022/08/02 01:51:15;;;;;;;3.47;1.52;;;;;;;9.45;52.12;101907.78;5002315;28;20056;-77
2022/08/02 01:53:42;;;;;;;3.45;1.30;;;;;;;9.50;52.16;101905.09;5012143;28;20367;-76
2022/08/02 01:56:10;;;;;;;3.33;1.25;;;;;;;9.38;51.84;101899.22;5014934;28;20034;-76
2022/08/02 01:58:38;;;;;;;4.47;1.50;;;;;;;9.33;52.21;101888.03;5018829;28;20057;-77
2022/08/02 02:01:06;;;;;;;6.40;1.35;;;;;;;9.19;52.32;101890.03;5000713;28;20033;-75
2022/08/02 02:03:34;;;;;;;6.32;1.80;;;;;;;9.13;52.83;101890.13;5031280;28;20133;-76
2022/08/02 02:06:01;;;;;;;3.47;1.42;;;;;;;9.05;52.73;101892.00;5021201;28;20168;-76
2022/08/02 02:08:40;;;;;;;2.05;1.10;;;;;;;9.01;52.77;101885.13;5031664;28;20029;-76
2022/08/02 02:11:06;;;;;;;4.47;2.08;;;;;;;8.93;52.89;101878.28;5000878;28;20033;-76
2022/08/02 02:13:35;;;;;;;3.92;1.70;;;;;;;8.80;53.52;101862.91;5019960;28;20078;-76
2022/08/02 02:16:03;;;;;;;8.10;1.52;;;;;;;8.73;53.77;101860.38;5016589;28;20037;-77
2022/08/02 02:18:29;;;;;;;9.77;1.27;;;;;;;8.71;53.86;101861.28;5023256;28;20068;-75
2022/08/02 02:20:55;;;;;;;2.13;1.00;;;;;;;8.72;53.98;101868.25;5015101;28;20030;-76
2022/08/02 02:23:21;;;;;;;3.10;1.65;;;;;;;8.72;53.80;101860.44;5029218;28;20627;-76
2022/08/02 02:25:47;;;;;;;2.70;0.98;;;;;;;8.68;53.85;101858.72;5006255;28;20144;-77
2022/08/02 02:28:18;;;;;;;4.80;1.05;;;;;;;8.61;54.22;101852.75;5003788;28;20076;-77
2022/08/02 02:30:49;;;;;;;5.00;1.33;;;;;;;8.59;54.29;101841.50;5018010;28;20096;-76
2022/08/02 02:33:21;;;;;;;3.00;1.25;;;;;;;8.54;54.26;101849.38;5008810;28;20050;-76
2022/08/02 02:35:49;;;;;;;2.78;1.70;;;;;;;8.58;54.13;101844.97;5020275;28;20032;-77
2022/08/02 02:38:17;;;;;;;1.65;0.82;;;;;;;8.59;54.33;101845.84;5020785;28;20119;-76
2022/08/02 02:40:45;;;;;;;4.22;1.17;;;;;;;8.58;54.44;101847.56;5019234;28;20033;-76
2022/08/02 02:43:11;;;;;;;2.03;1.08;;;;;;;8.60;54.43;101844.94;5019531;28;20060;-77
2022/08/02 02:45:38;;;;;;;4.50;1.15;;;;;;;8.63;54.56;101850.09;5009466;28;20136;-77
2022/08/02 02:48:05;;;;;;;2.13;0.70;;;;;;;8.88;53.89;101846.25;5007276;28;20053;-75
2022/08/02 02:50:31;;;;;;;2.17;0.70;;;;;;;8.92;53.82;101847.91;5018757;28;20071;-76
2022/08/02 02:52:58;;;;;;;7.35;0.70;;;;;;;9.00;53.56;101847.75;5023482;28;20053;-76
2022/08/02 02:55:26;;;;;;;3.20;0.73;;;;;;;8.87;53.27;101846.25;5021294;28;20036;-76
2022/08/02 02:57:52;;;;;;;3.08;1.48;;;;;;;8.83;53.43;101840.25;5017419;28;20045;-75
2022/08/02 03:01:26;;;;;;;3.47;0.95;;;;;;;8.82;53.55;101832.44;5020183;28;20037;-76
2022/08/02 03:03:03;;;;;;;9.13;0.80;;;;;;;8.73;53.57;101831.72;5014578;28;20073;-75
2022/08/02 03:05:29;;;;;;;5.15;1.63;;;;;;;8.70;53.74;101834.34;5019891;28;20038;-77
2022/08/02 03:07:54;;;;;;;4.00;0.90;;;;;;;8.60;54.02;101824.09;5006214;28;20679;-75
2022/08/02 03:10:20;;;;;;;3.30;0.98;;;;;;;8.56;53.85;101813.75;5011714;28;20030;-76
2022/08/02 03:12:45;;;;;;;6.93;0.98;;;;;;;8.54;53.95;101815.50;5020370;28;20052;-77
2022/08/02 03:15:12;;;;;;;3.00;1.02;;;;;;;8.57;54.11;101822.41;5020739;28;20116;-76
2022/08/02 03:17:44;;;;;;;6.25;1.52;;;;;;;8.74;53.89;101822.16;5005607;28;20037;-76
2022/08/02 03:20:16;;;;;;;2.38;1.15;;;;;;;8.81;53.33;101821.16;5008004;28;20033;-76
2022/08/02 03:22:43;;;;;;;5.03;1.27;;;;;;;8.87;53.55;101823.66;5018926;28;20045;-76
2022/08/02 03:25:10;;;;;;;4.75;0.90;;;;;;;8.85;53.21;101821.97;5006435;28;20028;-76
2022/08/02 03:27:36;;;;;;;5.25;1.30;;;;;;;8.81;53.28;101821.16;5016010;28;20137;-75
2022/08/02 03:30:05;;;;;;;3.78;1.35;;;;;;;8.77;53.19;101829.94;5022155;28;20124;-76
2022/08/02 03:32:32;;;;;;;2.80;0.93;;;;;;;8.73;53.09;101820.44;5014894;28;20076;-76
2022/08/02 03:34:57;;;;;;;4.00;1.35;;;;;;;8.84;53.04;101825.47;5003603;28;20037;-77
2022/08/02 03:37:24;;;;;;;4.93;1.00;;;;;;;8.81;52.75;101825.50;5007601;28;20041;-77
2022/08/02 03:39:52;;;;;;;4.18;1.33;;;;;;;8.71;52.99;101822.19;5019711;28;20120;-74
2022/08/02 03:42:19;;;;;;;5.07;1.17;;;;;;;8.63;53.19;101819.72;5008880;28;20033;-75
2022/08/02 03:44:47;;;;;;;2.08;1.00;;;;;;;8.61;53.32;101818.00;5023742;28;20491;-75
2022/08/02 03:47:13;;;;;;;2.28;1.00;;;;;;;8.69;52.93;101821.34;5016050;28;20080;-76
2022/08/02 03:49:40;;;;;;;2.42;1.20;;;;;;;8.80;52.79;101824.66;5022204;28;20061;-75
2022/08/02 03:52:05;;;;;;;10.45;1.33;;;;;;;8.68;53.01;101817.88;5012989;28;20038;-75
2022/08/02 03:54:31;;;;;;;6.75;1.17;;;;;;;8.60;53.12;101818.88;5029704;28;20033;-76
2022/08/02 03:56:57;;;;;;;5.00;0.98;;;;;;;8.59;53.69;101817.19;5016522;28;20667;-77
2022/08/02 03:59:22;;;;;;;3.65;0.88;;;;;;;8.60;53.83;101811.06;5004236;28;20044;-75
2022/08/02 04:01:48;;;;;;;4.88;1.45;;;;;;;8.58;53.60;101803.25;5017890;28;20041;-76
2022/08/02 04:04:13;;;;;;;5.80;1.33;;;;;;;8.59;53.92;101804.16;5020996;28;20045;-76
2022/08/02 04:06:39;;;;;;;4.72;1.30;;;;;;;8.67;53.98;101805.75;5019776;28;20111;-77
2022/08/02 04:09:04;;;;;;;4.30;0.95;;;;;;;8.87;53.55;101810.59;5025548;28;20064;-76
2022/08/02 04:11:30;;;;;;;3.25;0.90;;;;;;;9.00;53.29;101810.41;5003524;28;20033;-77
2022/08/02 04:14:04;;;;;;;8.70;1.70;;;;;;;9.14;52.80;101813.59;5016454;28;20097;-76
2022/08/02 04:16:45;;;;;;;6.35;2.15;;;;;;;9.28;52.28;101816.81;4999709;28;20061;-76
2022/08/02 04:19:15;;;;;;;5.57;1.42;;;;;;;9.27;52.64;101811.63;5032595;28;20029;-75
2022/08/02 04:21:44;;;;;;;2.72;1.05;;;;;;;9.24;52.46;101802.09;5034304;28;20068;-74
2022/08/02 04:24:11;;;;;;;5.38;1.27;;;;;;;9.14;52.49;101813.59;5020355;28;20034;-75
2022/08/02 04:26:38;;;;;;;2.42;2.05;;;;;;;9.08;52.90;101816.34;5015463;28;20207;-76
2022/08/02 04:29:05;;;;;;;5.35;1.13;;;;;;;9.16;53.31;101809.22;5025326;28;20038;-76
2022/08/02 04:31:31;;;;;;;4.88;2.03;;;;;;;9.29;53.17;101817.66;5023147;28;20065;-76
2022/08/02 04:33:57;;;;;;;5.22;1.63;;;;;;;9.25;52.91;101816.00;5008834;28;20195;-77
2022/08/02 04:36:23;;;;;;;13.07;1.85;;;;;;;9.36;52.67;101812.28;5003629;28;20107;-76
2022/08/02 04:38:49;;;;;;;4.30;1.35;;;;;;;9.36;52.66;101806.22;5025406;28;20045;-77
2022/08/02 04:41:14;;;;;;;2.28;1.15;;;;;;;9.40;52.65;101797.44;5018790;28;20067;-76
2022/08/02 04:43:40;;;;;;;2.88;1.15;;;;;;;9.37;52.78;101794.91;5017924;28;20496;-78
2022/08/02 04:46:05;;;;;;;3.88;1.02;;;;;;;9.36;52.71;101783.59;5024653;28;20213;-77
2022/08/02 04:48:31;;;;;;;7.50;1.77;;;;;;;9.44;52.79;101787.81;5021791;28;20056;-76
2022/08/02 04:50:57;;;;;;;7.05;1.60;;;;;;;9.56;52.79;101785.78;5018779;28;20073;-79
2022/08/02 04:53:22;;;;;;;5.18;1.88;;;;;;;9.63;52.61;101781.28;5002634;28;20054;-75
2022/08/02 04:55:48;;;;;;;13.45;2.40;;;;;;;9.79;52.66;101792.28;5036419;28;20039;-75
2022/08/02 04:58:14;;;;;;;5.43;1.45;;;;;;;9.83;52.78;101793.94;5025080;28;20040;-76
2022/08/02 05:00:39;;;;;;;3.70;1.65;;;;;;;10.21;51.98;101805.28;5024212;28;20099;-77
2022/08/02 05:03:05;;;;;;;10.55;1.70;;;;;;;10.36;51.43;101801.44;5004267;28;20144;-76
2022/08/02 05:05:31;;;;;;;7.93;1.83;;;;;;;10.47;50.88;101802.03;5008462;28;20705;-76
2022/08/02 05:07:57;;;;;;;10.35;2.30;;;;;;;10.49;50.57;101802.84;5014517;28;20045;-77
2022/08/02 05:10:22;;;;;;;5.65;1.90;;;;;;;10.49;50.76;101800.25;5017098;28;20235;-76
2022/08/02 05:12:48;;;;;;;6.03;1.80;;;;;;;10.69;50.83;101802.34;5015421;28;20056;-76
2022/08/02 05:15:16;;;;;;;4.68;1.73;;;;;;;11.02;50.22;101811.09;5014331;28;20033;-74
2022/08/02 05:17:42;;;;;;;4.63;1.40;;;;;;;11.34;50.08;101811.97;5021592;28;20073;-77
2022/08/02 05:20:08;;;;;;;2.25;1.35;;;;;;;11.58;49.77;101814.78;5003067;28;20057;-76
2022/08/02 05:22:34;;;;;;;5.00;1.50;;;;;;;12.12;48.13;101816.66;5032041;28;20048;-76
2022/08/02 05:24:59;;;;;;;4.80;1.30;;;;;;;12.84;47.16;101816.06;5007480;28;20025;-76
2022/08/02 05:27:25;;;;;;;6.68;0.93;;;;;;;12.90;46.37;101806.22;5024003;28;20107;-76
2022/08/02 05:29:50;;;;;;;2.80;2.15;;;;;;;12.76;46.49;101802.34;5017131;28;20121;-75
2022/08/02 05:32:17;;;;;;;2.97;1.15;;;;;;;12.84;45.96;101806.44;5017855;28;20053;-75
2022/08/02 05:34:42;;;;;;;5.18;1.60;;;;;;;12.61;46.83;101799.31;5007242;28;20124;-76
2022/08/02 05:37:08;;;;;;;8.77;1.83;;;;;;;14.73;44.12;101788.66;5025315;28;20137;-75
2022/08/02 05:39:33;;;;;;;9.80;1.70;;;;;;;15.81;39.89;101791.72;5027596;28;20040;-75
2022/08/02 05:41:59;;;;;;;6.22;0.98;;;;;;;16.02;38.77;101794.25;5021258;28;20404;-77
2022/08/02 05:44:24;;;;;;;4.95;1.00;;;;;;;17.27;37.41;101791.41;5024912;28;20099;-78
2022/08/02 05:46:50;;;;;;;4.28;1.63;;;;;;;19.25;33.65;101783.47;5021873;28;20053;-75
2022/08/02 05:49:15;;;;;;;5.18;1.00;;;;;;;20.12;31.78;101765.56;5007557;28;20480;-76
2022/08/02 05:52:06;;;;;;;7.82;1.17;;;;;;;20.34;30.56;101757.03;5009202;28;20030;-76
2022/08/02 05:54:38;;;;;;;6.68;0.88;;;;;;;20.54;30.14;101759.19;5007359;28;20030;-77
2022/08/02 05:57:16;;;;;;;4.03;0.60;;;;;;;20.49;30.16;101744.53;5019629;28;20046;-76
2022/08/02 05:59:53;;;;;;;4.68;0.73;;;;;;;20.13;30.75;101746.88;5020743;28;20033;-74
2022/08/02 06:02:42;;;;;;;4.78;0.75;;;;;;;20.15;30.53;101741.50;5028301;28;20591;-77
2022/08/02 06:05:17;;;;;;;3.47;0.47;;;;;;;20.64;30.27;101751.44;5018640;28;20038;-77
2022/08/02 06:07:44;;;;;;;7.15;0.98;;;;;;;21.42;29.08;101737.06;5037215;28;20053;-76
2022/08/02 06:10:12;;;;;;;4.22;1.48;;;;;;;21.93;28.03;101741.34;5026415;28;20139;-77
2022/08/02 06:13:08;;;;;;;5.40;1.30;;;;;;;22.29;27.90;101742.22;5006769;28;20412;-77
2022/08/02 06:15:36;;;;;;;2.28;0.95;;;;;;;21.85;28.03;101741.09;5014110;28;20539;-81
2022/08/02 06:18:03;;;;;;;5.63;0.85;;;;;;;21.50;28.69;101737.41;5018778;28;20133;-76
2022/08/02 06:20:39;;;;;;;4.43;0.70;;;;;;;21.53;28.74;101736.31;5035498;28;20030;-77
2022/08/02 06:23:07;;;;;;;2.05;0.82;;;;;;;21.69;28.85;101736.91;5020207;28;20124;-77
2022/08/02 06:25:36;;;;;;;8.02;0.88;;;;;;;22.25;27.65;101743.41;5033163;28;20041;-76
2022/08/02 06:28:04;;;;;;;6.82;0.90;;;;;;;23.55;26.13;101767.84;5004815;28;20041;-79
2022/08/02 06:30:31;;;;;;;3.40;0.70;;;;;;;23.93;25.35;101771.03;5017525;28;20037;-77
2022/08/02 06:32:58;;;;;;;6.95;0.73;;;;;;;24.23;24.85;101757.75;5018946;28;20042;-77
2022/08/02 06:35:55;;;;;;;3.28;0.60;;;;;;;24.44;25.11;101759.63;5017046;28;20053;-76
2022/08/02 06:38:24;;;;;;;4.47;0.70;;;;;;;25.01;25.44;101760.88;4950613;28;20149;-75
2022/08/02 06:40:56;;;;;;;4.57;0.50;;;;;;;26.17;22.87;101750.50;5033032;28;20559;-75
2022/08/02 06:43:52;;;;;;;3.17;0.47;;;;;;;25.84;23.58;101747.25;5023914;28;20049;-77
2022/08/02 06:46:18;;;;;;;4.35;0.63;;;;;;;25.22;24.30;101754.63;5021434;28;20651;-76
2022/08/02 06:48:43;;;;;;;5.20;1.10;;;;;;;26.02;22.59;101736.66;5003805;28;20046;-76
2022/08/02 06:51:09;;;;;;;2.40;0.68;;;;;;;25.58;22.81;101728.25;5031703;28;20040;-76
2022/08/02 06:53:35;;;;;;;3.88;0.88;;;;;;;24.49;24.16;101729.84;5015321;28;20041;-77
2022/08/02 06:56:00;;;;;;;3.38;0.57;;;;;;;24.50;24.70;101737.69;5002928;28;20630;-76
2022/08/02 06:58:26;;;;;;;3.40;0.95;;;;;;;25.03;24.06;101739.38;5015183;28;20176;-76
2022/08/02 07:00:52;;;;;;;3.60;0.43;;;;;;;24.47;25.08;101737.13;5019907;28;20781;-75
2022/08/02 07:03:17;;;;;;;5.35;1.08;;;;;;;25.24;23.97;101726.75;5023933;28;20489;-74
2022/08/02 07:05:47;;;;;;;3.63;0.68;;;;;;;24.84;24.47;101722.25;5019834;28;20038;-75
2022/08/02 07:08:16;;;;;;;1.55;0.47;;;;;;;24.18;25.72;101722.56;5020025;28;20726;-75
2022/08/02 07:10:42;;;;;;;4.05;0.75;;;;;;;24.48;25.38;101715.63;5015370;28;20044;-75
2022/08/02 07:13:08;;;;;;;5.70;0.70;;;;;;;25.44;24.18;101708.91;5008066;28;20038;-75
2022/08/02 07:15:33;;;;;;;10.02;1.00;;;;;;;26.82;22.52;101710.41;5014918;28;20037;-75
2022/08/02 07:17:59;;;;;;;4.57;0.55;;;;;;;26.69;23.16;101700.88;4995990;28;20041;-76
2022/08/02 07:20:24;;;;;;;4.20;1.40;;;;;;;27.13;22.38;101694.03;5018141;28;20306;-78
2022/08/02 07:22:50;;;;;;;3.25;0.75;;;;;;;28.57;21.20;101690.16;5009339;28;20479;-77
2022/08/02 07:25:16;;;;;;;3.95;0.38;;;;;;;28.74;20.51;101691.06;5021348;28;20194;-78
2022/08/02 07:27:41;;;;;;;5.13;0.57;;;;;;;28.51;20.75;101690.78;5012179;28;20419;-78
2022/08/02 07:30:08;;;;;;;2.03;0.63;;;;;;;28.33;21.22;101691.69;5008681;28;20166;-76
2022/08/02 07:32:33;;;;;;;3.63;0.55;;;;;;;28.11;21.12;101693.03;5010276;28;20630;-78
2022/08/02 07:35:00;;;;;;;3.28;0.60;;;;;;;28.38;21.21;101698.44;5007644;28;20124;-78
2022/08/02 07:37:31;;;;;;;7.63;0.98;;;;;;;27.13;21.78;101699.38;5009570;28;20061;-77
2022/08/02 07:39:57;;;;;;;4.25;0.75;;;;;;;26.86;22.92;101693.84;5017211;28;20045;-77
2022/08/02 07:42:22;;;;;;;4.05;0.70;;;;;;;26.70;22.39;101691.81;5016333;28;20041;-76
2022/08/02 07:44:48;;;;;;;5.85;1.02;;;;;;;26.78;22.61;101695.59;4999519;28;20103;-77
2022/08/02 07:47:14;;;;;;;6.45;1.75;;;;;;;25.80;23.97;101684.25;5006771;28;20542;-77
2022/08/02 07:49:39;;;;;;;4.25;0.90;;;;;;;25.88;23.51;101689.75;5012488;28;20049;-76
2022/08/02 07:52:05;;;;;;;2.53;0.77;;;;;;;26.26;23.12;101691.53;5016728;28;20054;-78
2022/08/02 07:54:30;;;;;;;6.28;0.77;;;;;;;26.92;23.03;101688.91;5008796;28;20038;-76
2022/08/02 07:56:56;;;;;;;3.70;0.90;;;;;;;27.28;22.06;101689.81;5009734;28;20046;-76
2022/08/02 07:59:21;;;;;;;5.15;0.70;;;;;;;27.81;21.23;101672.88;5007613;28;20044;-76
2022/08/02 08:01:48;;;;;;;2.03;0.73;;;;;;;27.22;21.98;101682.38;4993005;28;20076;-77
2022/08/02 08:04:14;;;;;;;4.10;1.35;;;;;;;27.55;21.84;101690.75;5010265;28;20090;-78
2022/08/02 08:06:40;;;;;;;6.57;0.73;;;;;;;27.83;21.20;101684.31;5008284;28;20048;-75
2022/08/02 08:09:06;;;;;;;1.40;0.40;;;;;;;29.11;19.78;101690.72;4993015;28;20037;-76
2022/08/02 08:11:31;;;;;;;4.28;1.20;;;;;;;29.63;19.42;101681.53;4997495;28;20030;-78
2022/08/02 08:13:56;;;;;;;8.55;1.27;;;;;;;30.58;19.38;101686.28;5010608;28;20884;-75
2022/08/02 08:16:24;;;;;;;2.20;0.50;;;;;;;29.76;19.59;101681.03;5011362;28;20044;-76
2022/08/02 08:18:51;;;;;;;5.35;0.65;;;;;;;30.66;18.52;101677.31;5004206;28;20080;-76
2022/08/02 08:21:16;;;;;;;4.35;0.73;;;;;;;29.88;19.18;101673.44;5005021;28;20112;-76
2022/08/02 08:23:42;;;;;;;5.30;1.30;;;;;;;28.92;19.79;101672.13;5011181;28;20038;-76
2022/08/02 08:26:07;;;;;;;3.75;0.82;;;;;;;28.13;20.54;101672.25;5008689;28;20029;-77
2022/08/02 08:28:34;;;;;;;4.60;0.88;;;;;;;28.73;20.91;101671.41;5007344;28;20056;-76
2022/08/02 08:31:00;;;;;;;7.63;0.95;;;;;;;29.19;19.94;101662.13;5004038;28;20044;-77
2022/08/02 08:33:26;;;;;;;5.22;1.15;;;;;;;28.48;20.40;101664.22;5007155;28;20139;-77
2022/08/02 08:35:52;;;;;;;4.78;0.82;;;;;;;27.85;21.20;101658.13;5008832;28;20777;-77
2022/08/02 08:38:18;;;;;;;2.40;1.00;;;;;;;28.60;20.61;101659.41;4992010;28;20045;-77
2022/08/02 08:40:43;;;;;;;6.50;0.85;;;;;;;29.32;19.96;101659.78;5013743;28;20797;-76
2022/08/02 08:43:12;;;;;;;6.18;1.10;;;;;;;29.41;19.91;101650.69;4996958;28;21032;-78
2022/08/02 08:45:47;;;;;;;5.53;0.60;;;;;;;29.80;18.92;101660.81;5022384;28;20049;-77
2022/08/02 08:48:15;;;;;;;5.07;0.98;;;;;;;27.72;20.93;101646.97;5003834;28;20397;-76
2022/08/02 08:50:59;;;;;;;6.78;0.88;;;;;;;28.77;19.86;101646.84;5007084;28;20065;-75
2022/08/02 08:53:29;;;;;;;3.60;0.52;;;;;;;29.20;19.99;101653.06;5008054;28;20046;-75
2022/08/02 08:55:56;;;;;;;2.53;0.85;;;;;;;30.91;18.79;101653.72;4992269;28;20037;-74
2022/08/02 08:58:23;;;;;;;4.10;0.75;;;;;;;30.44;17.96;101660.00;5014697;28;20050;-74
2022/08/02 09:00:48;;;;;;;4.97;0.73;;;;;;;29.60;19.17;101646.88;5012349;28;20431;-74
2022/08/02 09:03:14;;;;;;;3.25;0.57;;;;;;;30.35;19.09;101643.84;4997623;28;20107;-75
2022/08/02 09:05:40;;;;;;;3.20;0.40;;;;;;;31.04;18.16;101643.19;5001903;28;20060;-75
2022/08/02 09:08:06;;;;;;;3.95;0.40;;;;;;;29.39;19.84;101639.25;5002951;28;20097;-76
2022/08/02 09:10:43;;;;;;;3.25;0.50;;;;;;;29.19;20.55;101636.03;5002523;28;20037;-74
2022/08/02 09:13:12;;;;;;;6.22;0.80;;;;;;;29.05;19.43;101632.13;5026791;28;20079;-75
2022/08/02 09:15:39;;;;;;;2.63;0.40;;;;;;;27.52;20.86;101641.72;5044835;28;20033;-73
2022/08/02 09:18:06;;;;;;;1.92;0.40;;;;;;;28.73;21.49;101647.19;5026049;28;20052;-73
2022/08/02 09:20:34;;;;;;;5.32;0.45;;;;;;;27.91;20.46;101649.41;5010450;28;20034;-75
2022/08/02 09:23:08;;;;;;;4.53;0.60;;;;;;;26.65;21.32;101653.91;5003556;28;20069;-74
2022/08/02 09:25:35;;;;;;;1.15;0.20;;;;;;;26.69;22.42;101649.94;5014677;28;20041;-74
2022/08/02 09:28:03;;;;;;;6.20;0.60;;;;;;;25.85;22.10;101634.66;5007113;28;20045;-73
2022/08/02 09:30:28;;;;;;;3.10;0.63;;;;;;;25.66;23.23;101643.59;4997717;28;20113;-75
2022/08/02 09:32:54;;;;;;;3.15;0.50;;;;;;;25.20;23.45;101647.75;5008247;28;20124;-75
2022/08/02 09:35:34;;;;;;;3.28;1.08;;;;;;;24.80;24.20;101637.94;4998420;28;20096;-76
2022/08/02 09:38:11;;;;;;;1.70;0.28;;;;;;;24.35;24.44;101632.16;4994268;28;20511;-75
2022/08/02 09:40:38;;;;;;;8.70;1.48;;;;;;;24.27;25.37;101631.97;5007176;28;20098;-76
2022/08/02 09:43:05;;;;;;;2.15;0.65;;;;;;;24.33;25.12;101629.59;5004472;28;20054;-75
2022/08/02 09:45:35;;;;;;;3.13;0.60;;;;;;;25.07;23.71;101628.47;5006134;28;20389;-75
2022/08/02 09:48:05;;;;;;;3.42;0.40;;;;;;;25.33;24.53;101623.41;5007759;28;20049;-76
2022/08/02 09:50:30;;;;;;;2.40;0.55;;;;;;;25.50;23.22;101619.16;5009587;28;20044;-76
2022/08/02 09:52:56;;;;;;;4.05;0.70;;;;;;;25.09;23.97;101620.31;5011306;28;20037;-76
2022/08/02 09:55:23;;;;;;;4.50;0.30;;;;;;;24.47;23.94;101628.41;4995833;28;20040;-76
2022/08/02 09:57:49;;;;;;;2.33;0.20;;;;;;;25.05;24.16;101630.44;5013802;28;20049;-77
2022/08/02 10:00:14;;;;;;;2.42;0.43;;;;;;;25.20;23.88;101642.41;5009711;28;20496;-76
2022/08/02 10:03:09;;;;;;;3.00;0.60;;;;;;;25.34;23.29;101635.81;5012286;28;20794;-76
2022/08/02 10:05:53;;;;;;;4.20;0.30;;;;;;;26.09;23.97;101636.06;5007365;28;20033;-75
2022/08/02 10:08:19;;;;;;;5.63;0.70;;;;;;;26.41;23.66;101635.63;5006319;28;20054;-75
2022/08/02 10:10:45;;;;;;;2.03;0.30;;;;;;;26.76;22.47;101634.09;5008078;28;20028;-76
2022/08/02 10:13:10;;;;;;;3.58;0.40;;;;;;;25.08;23.87;101634.66;5006601;28;20037;-75
2022/08/02 10:15:37;;;;;;;2.53;0.30;;;;;;;25.65;24.80;101628.50;5006264;28;20034;-78
2022/08/02 10:18:07;;;;;;;2.55;0.52;;;;;;;26.14;23.34;101623.06;4990677;28;20045;-76
2022/08/02 10:20:40;;;;;;;2.72;0.70;;;;;;;26.86;23.17;101615.25;5023797;28;20040;-76
2022/08/02 10:23:09;;;;;;;5.47;0.40;;;;;;;26.61;23.37;101617.66;5015018;28;20570;-75
2022/08/02 10:25:37;;;;;;;4.57;0.57;;;;;;;26.32;23.30;101604.38;5013901;28;20033;-75
2022/08/02 10:28:05;;;;;;;3.65;0.63;;;;;;;25.63;23.96;101602.84;5012721;28;20488;-75
2022/08/02 10:30:35;;;;;;;3.67;0.40;;;;;;;24.89;24.59;101600.69;4999066;28;20034;-76
2022/08/02 10:33:03;;;;;;;2.15;0.20;;;;;;;24.99;24.40;101588.19;5025265;28;20049;-76
2022/08/02 10:35:32;;;;;;;2.78;0.47;;;;;;;24.80;26.90;101589.00;5015592;28;20140;-75
2022/08/02 10:38:02;;;;;;;2.47;0.40;;;;;;;25.81;25.02;101589.56;5006122;28;20057;-77
2022/08/02 10:40:49;;;;;;;4.32;0.30;;;;;;;26.32;23.97;101585.63;5013920;28;20541;-77
2022/08/02 10:43:42;;;;;;;2.33;0.93;;;;;;;26.51;23.20;101587.34;5010779;28;20046;-75
2022/08/02 10:46:33;;;;;;;3.50;0.65;;;;;;;25.90;23.66;101594.06;4996244;28;20892;-75
2022/08/02 10:49:03;;;;;;;4.97;1.30;;;;;;;25.99;24.82;101597.69;4989917;28;20065;-77
2022/08/02 10:51:53;;;;;;;0.85;0.30;;;;;;;26.02;22.81;101587.53;5014580;28;20037;-76
2022/08/02 10:54:20;;;;;;;1.75;0.47;;;;;;;25.79;24.29;101587.03;4997182;28;20038;-76
2022/08/02 10:56:51;;;;;;;1.35;0.45;;;;;;;26.85;23.06;101574.19;5016149;28;20037;-76
2022/08/02 10:59:35;;;;;;;2.47;0.30;;;;;;;27.60;23.47;101567.59;5017574;28;20550;-75
2022/08/02 11:02:03;;;;;;;3.72;0.28;;;;;;;27.33;21.63;101556.00;5012282;28;21122;-76
2022/08/02 11:04:50;;;;;;;1.85;0.50;;;;;;;27.23;22.16;101555.28;5010031;28;20107;-76
2022/08/02 11:07:18;;;;;;;2.70;0.30;;;;;;;26.42;23.26;101550.72;5007426;28;20499;-76
2022/08/02 11:09:48;;;;;;;0.90;0.20;;;;;;;26.01;22.87;101552.88;5004670;28;20053;-76
2022/08/02 11:12:15;;;;;;;2.88;0.20;;;;;;;26.56;23.34;101550.22;5009909;28;20124;-76
2022/08/02 11:14:56;;;;;;;1.58;0.55;;;;;;;26.25;22.90;101555.88;5016849;28;20124;-75
2022/08/02 11:17:23;;;;;;;3.72;0.65;;;;;;;26.17;23.40;101547.75;5017458;28;20606;-77
2022/08/02 11:20:07;;;;;;;2.97;0.20;;;;;;;26.21;24.31;101543.78;5009685;28;20094;-77
2022/08/02 11:22:34;;;;;;;3.80;0.68;;;;;;;26.15;23.35;101547.03;5012449;28;20041;-77
2022/08/02 11:25:25;;;;;;;0.63;0.20;;;;;;;26.56;23.29;101535.94;5014253;28;20120;-77
2022/08/02 11:27:58;;;;;;;3.37;0.40;;;;;;;26.81;22.67;101539.78;5023675;28;20064;-77
2022/08/02 11:30:24;;;;;;;1.60;0.32;;;;;;;25.56;24.16;101534.84;5010874;28;20723;-76
2022/08/02 11:32:54;;;;;;;3.30;0.20;;;;;;;25.45;24.75;101530.47;5008748;28;20127;-77
2022/08/02 11:35:20;;;;;;;1.52;0.30;;;;;;;25.19;24.75;101530.19;5000953;28;20419;-76
2022/08/02 11:37:46;;;;;;;1.23;0.20;;;;;;;25.62;25.02;101523.53;4996765;28;20053;-77